FIMP/MRU METAR and TAF weather

Enter ICAO airport designator
Station Type Date Time Source
FIMP METAR 2022/06/25 23:00 UTC NOAA

FIMP 252300Z 14006KT 9999 VCSH BKN016 SCT050 21/15 Q1021


Station Type Date Time Source
FIMP Decoded METAR 2022/06/25 23:00 UTC NOAA

Plaisance Mauritius , Mauritius (FIMP) 20-26S 057-40E 57M
Jun 25, 2022 - 07:00 PM EDT / 2022.06.25 2300 UTC
Wind: from the SE (140 degrees) at 7 MPH (6 KT):0
Visibility: greater than 7 mile(s):0
Sky conditions: mostly cloudy
Weather: showers in the vicinity
Temperature: 69 F (21 C)
Dew Point: 59 F (15 C)
Relative Humidity: 68%
Pressure (altimeter): 30.15 in. Hg (1021 hPa)
ob: FIMP 252300Z 14006KT 9999 VCSH BKN016 SCT050 21/15 Q1021
cycle: 23

Station Type Date Time Source
FIMP TAF 2022/06/25 18:05 UTC NOAA

TAF FIMP 251705Z 2518/2700 11010G20KT 9999 BKN016 PROB30
TEMPO 2518/2604 7000 -SHRA BKN015

Example: see airport list